Time;durP1;ratioP1;P1;durP2;ratioP2;P2;SDS_P1;SDS_P2;PMS_P1;PMS_P2;Temp;Humidity;BMP_temperature;BMP_pressure;BME280_temperature;BME280_humidity;BME280_pressure;Samples;Min_cycle;Max_cycle;Signal;HPM_P1;HPM_P2
2023/08/06 00:01:48;;;;;;;;;;;;;;;19.08;62.70;99353.44;4957093;28;6885;-72
2023/08/06 00:04:14;;;;;;;;;;;;;;;19.08;62.37;99348.25;4978339;28;6803;-72
2023/08/06 00:06:39;;;;;;;;;;;;;;;19.06;62.46;99353.44;4970054;28;7142;-72
2023/08/06 00:09:05;;;;;;;;;;;;;;;19.07;62.80;99343.94;4979951;28;6788;-72
2023/08/06 00:11:30;;;;;;;;;;;;;;;19.05;62.49;99343.91;4970201;28;6951;-72
2023/08/06 00:13:56;;;;;;;;;;;;;;;19.05;62.75;99343.91;4979633;28;6858;-72
2023/08/06 00:16:21;;;;;;;;;;;;;;;19.03;62.34;99347.41;4969126;28;6995;-72
2023/08/06 00:18:47;;;;;;;;;;;;;;;19.02;62.25;99354.34;4976401;28;6938;-72
2023/08/06 00:21:12;;;;;;;;;;;;;;;18.97;61.97;99354.31;4982595;28;7263;-72
2023/08/06 00:23:38;;;;;;;;;;;;;;;18.94;62.49;99348.25;4978409;28;6968;-72
2023/08/06 00:26:04;;;;;;;;;;;;;;;18.91;62.52;99346.53;4991532;28;7212;-71
2023/08/06 00:28:29;;;;;;;;;;;;;;;18.88;62.59;99338.75;4992920;28;6792;-72
2023/08/06 00:30:56;;;;;;;;;;;;;;;18.85;62.86;99337.03;4970880;28;7052;-71
2023/08/06 00:33:22;;;;;;;;;;;;;;;18.83;62.63;99331.00;4982070;28;6792;-71
2023/08/06 00:35:48;;;;;;;;;;;;;;;18.81;62.71;99326.66;4970939;28;6788;-72
2023/08/06 00:38:13;;;;;;;;;;;;;;;18.77;63.01;99328.41;4992184;28;6986;-72
2023/08/06 00:40:39;;;;;;;;;;;;;;;18.74;62.73;99325.81;4980855;28;6850;-72
2023/08/06 00:43:04;;;;;;;;;;;;;;;18.71;62.57;99329.28;4979727;28;6780;-72
2023/08/06 00:45:34;;;;;;;;;;;;;;;18.69;62.63;99325.84;4970880;28;6788;-72
2023/08/06 00:48:00;;;;;;;;;;;;;;;18.67;62.79;99324.97;4977261;28;7003;-72
2023/08/06 00:50:26;;;;;;;;;;;;;;;18.65;62.46;99325.84;4975026;28;6852;-71
2023/08/06 00:52:52;;;;;;;;;;;;;;;18.65;62.85;99329.31;4992756;28;6791;-72
2023/08/06 00:55:18;;;;;;;;;;;;;;;18.63;63.08;99322.41;4977205;28;7305;-73
2023/08/06 00:57:44;;;;;;;;;;;;;;;18.60;62.86;99321.53;4977526;28;6819;-72
2023/08/06 01:00:09;;;;;;;;;;;;;;;18.59;63.17;99330.19;4980414;28;7173;-72
2023/08/06 01:02:35;;;;;;;;;;;;;;;18.57;62.54;99329.31;4972660;28;11474;-72
2023/08/06 01:05:00;;;;;;;;;;;;;;;18.56;62.57;99334.53;4989640;28;6795;-71
2023/08/06 01:07:35;;;;;;;;;;;;;;;18.55;62.47;99335.41;4994273;28;6950;-72
2023/08/06 01:10:23;;;;;;;;;;;;;;;18.52;62.53;99337.97;4991190;28;7291;-71
2023/08/06 01:12:58;;;;;;;;;;;;;;;18.48;63.10;99331.06;4993889;28;7006;-72
2023/08/06 01:15:29;;;;;;;;;;;;;;;18.44;63.17;99325.88;4990541;28;6840;-71
2023/08/06 01:17:54;;;;;;;;;;;;;;;18.41;62.56;99325.88;4970337;28;7402;-71
2023/08/06 01:20:20;;;;;;;;;;;;;;;18.37;63.00;99328.47;4979972;28;6815;-71
2023/08/06 01:22:45;;;;;;;;;;;;;;;18.31;62.50;99327.66;4992980;28;6963;-71
2023/08/06 01:25:15;;;;;;;;;;;;;;;18.28;62.79;99326.78;4990946;28;7097;-72
2023/08/06 01:27:47;;;;;;;;;;;;;;;18.25;63.17;99326.75;4974090;28;7001;-71
2023/08/06 01:30:17;;;;;;;;;;;;;;;18.21;63.00;99330.22;4982143;28;6791;-72
2023/08/06 01:32:45;;;;;;;;;;;;;;;18.16;63.03;99320.75;4971503;28;7127;-72
2023/08/06 01:35:14;;;;;;;;;;;;;;;18.12;62.93;99316.41;4987551;28;6796;-71
2023/08/06 01:37:41;;;;;;;;;;;;;;;18.11;62.77;99321.59;4979139;28;8242;-71
2023/08/06 01:40:11;;;;;;;;;;;;;;;18.07;62.91;99318.16;4990221;28;6819;-72
2023/08/06 01:42:37;;;;;;;;;;;;;;;18.06;63.20;99315.53;4980633;28;6853;-71
2023/08/06 01:45:03;;;;;;;;;;;;;;;18.06;62.60;99320.72;4996960;28;6804;-71
2023/08/06 01:47:29;;;;;;;;;;;;;;;18.06;62.87;99313.84;4986718;28;6815;-72
2023/08/06 01:49:54;;;;;;;;;;;;;;;18.08;63.39;99306.91;4982062;28;6787;-71
2023/08/06 01:52:20;;;;;;;;;;;;;;;18.11;63.51;99314.69;4973855;28;7226;-72
2023/08/06 01:54:45;;;;;;;;;;;;;;;18.17;63.63;99308.63;4985783;28;6982;-71
2023/08/06 01:57:11;;;;;;;;;;;;;;;18.22;63.88;99308.63;4995892;28;7182;-72
2023/08/06 01:59:36;;;;;;;;;;;;;;;18.29;64.18;99310.34;4985703;28;6800;-72
2023/08/06 02:02:02;;;;;;;;;;;;;;;18.35;63.57;99307.75;4981799;28;6802;-71
2023/08/06 02:04:27;;;;;;;;;;;;;;;18.41;63.90;99306.88;4997969;28;6788;-71
2023/08/06 02:06:53;;;;;;;;;;;;;;;18.45;63.44;99311.19;4994459;28;6791;-72
2023/08/06 02:09:18;;;;;;;;;;;;;;;18.49;63.94;99312.06;4992404;28;6831;-72
2023/08/06 02:11:44;;;;;;;;;;;;;;;18.54;63.72;99307.69;4997735;28;6875;-72
2023/08/06 02:14:09;;;;;;;;;;;;;;;18.56;63.96;99306.00;4997456;28;8539;-72
2023/08/06 02:16:35;;;;;;;;;;;;;;;18.61;63.81;99304.22;4980543;28;6955;-71
2023/08/06 02:19:00;;;;;;;;;;;;;;;18.64;63.85;99309.44;4973195;28;7082;-71
2023/08/06 02:21:26;;;;;;;;;;;;;;;18.69;63.82;99306.81;4980971;28;7012;-72
2023/08/06 02:23:51;;;;;;;;;;;;;;;18.72;63.88;99302.47;4975418;28;8763;-71
2023/08/06 02:26:17;;;;;;;;;;;;;;;18.74;63.90;99290.38;4996137;28;6791;-74
2023/08/06 02:28:42;;;;;;;;;;;;;;;18.77;63.79;99291.22;4970260;28;6986;-74
2023/08/06 02:31:08;;;;;;;;;;;;;;;18.76;63.94;99290.34;4966993;28;6998;-74
2023/08/06 02:33:33;;;;;;;;;;;;;;;18.76;64.06;99289.50;4985973;28;7136;-74
2023/08/06 02:36:04;;;;;;;;;;;;;;;18.74;64.16;99290.38;5001966;28;7138;-74
2023/08/06 02:38:29;;;;;;;;;;;;;;;18.74;63.63;99279.97;4979090;28;6811;-74
2023/08/06 02:40:55;;;;;;;;;;;;;;;18.76;63.81;99281.72;4994165;28;7186;-74
2023/08/06 02:43:20;;;;;;;;;;;;;;;18.73;64.18;99273.06;4971253;28;6933;-73
2023/08/06 02:45:46;;;;;;;;;;;;;;;18.71;64.06;99272.19;4997360;28;6847;-74
2023/08/06 02:48:11;;;;;;;;;;;;;;;18.68;64.19;99271.34;4984712;28;6807;-73
2023/08/06 02:50:40;;;;;;;;;;;;;;;18.65;63.80;99272.22;4993899;28;6950;-74
2023/08/06 02:53:07;;;;;;;;;;;;;;;18.61;63.89;99270.50;4983040;28;6808;-74
2023/08/06 02:55:33;;;;;;;;;;;;;;;18.60;64.28;99267.06;4976674;28;7521;-74
2023/08/06 02:57:59;;;;;;;;;;;;;;;18.60;63.78;99264.47;4979231;28;6823;-74
2023/08/06 03:00:25;;;;;;;;;;;;;;;18.62;64.49;99261.84;4994058;28;7092;-74
2023/08/06 03:02:50;;;;;;;;;;;;;;;18.63;64.22;99255.78;4982482;28;6780;-74
2023/08/06 03:05:16;;;;;;;;;;;;;;;18.64;64.76;99260.13;4979706;28;7964;-74
2023/08/06 03:07:41;;;;;;;;;;;;;;;18.66;64.12;99258.38;4963478;28;6964;-73
2023/08/06 03:10:07;;;;;;;;;;;;;;;18.67;63.99;99261.81;4972470;28;6799;-73
2023/08/06 03:12:33;;;;;;;;;;;;;;;18.68;64.60;99251.44;4993274;28;7142;-73
2023/08/06 03:14:58;;;;;;;;;;;;;;;18.69;64.12;99258.38;4959894;28;6884;-74
2023/08/06 03:17:23;;;;;;;;;;;;;;;18.70;64.53;99257.50;4994166;28;6950;-74
2023/08/06 03:19:49;;;;;;;;;;;;;;;18.72;64.56;99253.16;4978846;28;7032;-74
2023/08/06 03:22:14;;;;;;;;;;;;;;;18.73;64.48;99247.13;4993921;28;7240;-73
2023/08/06 03:24:40;;;;;;;;;;;;;;;18.75;64.33;99247.09;4976463;28;6788;-74
2023/08/06 03:27:05;;;;;;;;;;;;;;;18.76;64.22;99251.41;4993045;28;6788;-74
2023/08/06 03:29:31;;;;;;;;;;;;;;;18.77;63.82;99247.94;4996223;28;7053;-74
2023/08/06 03:31:56;;;;;;;;;;;;;;;18.78;63.88;99243.63;4980424;28;6985;-74
2023/08/06 03:34:22;;;;;;;;;;;;;;;18.78;63.89;99246.22;4980815;28;6795;-74
2023/08/06 03:36:47;;;;;;;;;;;;;;;18.78;63.77;99248.81;4973803;28;6791;-73
2023/08/06 03:39:13;;;;;;;;;;;;;;;18.79;64.27;99247.94;4973184;28;6843;-74
2023/08/06 03:41:39;;;;;;;;;;;;;;;18.79;64.53;99246.22;4983083;28;6995;-75
2023/08/06 03:44:05;;;;;;;;;;;;;;;18.80;64.54;99247.94;4995566;28;6998;-75
2023/08/06 03:46:33;;;;;;;;;;;;;;;18.81;64.62;99247.09;4969557;28;6944;-74
2023/08/06 03:49:00;;;;;;;;;;;;;;;18.84;64.33;99247.06;5000097;28;7516;-74
2023/08/06 03:51:25;;;;;;;;;;;;;;;18.86;64.74;99241.88;4974425;28;6788;-74
2023/08/06 03:53:51;;;;;;;;;;;;;;;18.88;64.08;99237.53;4990761;28;6783;-74
2023/08/06 03:56:16;;;;;;;;;;;;;;;18.87;64.10;99236.66;4993839;28;6804;-74
2023/08/06 03:58:42;;;;;;;;;;;;;;;18.88;64.16;99240.13;4961399;28;6813;-74
2023/08/06 04:01:07;;;;;;;;;;;;;;;18.89;64.56;99241.84;4992353;28;7385;-74
2023/08/06 04:03:33;;;;;;;;;;;;;;;18.89;64.23;99239.25;4992154;28;6957;-75
2023/08/06 04:05:58;;;;;;;;;;;;;;;18.90;64.20;99242.72;4984221;28;6956;-74
2023/08/06 04:08:24;;;;;;;;;;;;;;;18.91;64.33;99242.69;4992571;28;6800;-74
2023/08/06 04:10:51;;;;;;;;;;;;;;;18.93;64.02;99245.28;4993105;28;6788;-74
2023/08/06 04:13:17;;;;;;;;;;;;;;;18.94;63.96;99245.28;4985356;28;6863;-74
2023/08/06 04:15:42;;;;;;;;;;;;;;;18.96;64.47;99246.16;4975638;28;6792;-74
2023/08/06 04:18:08;;;;;;;;;;;;;;;18.97;64.03;99242.69;4996786;28;6791;-74
2023/08/06 04:20:33;;;;;;;;;;;;;;;18.98;64.59;99239.19;4974679;28;7249;-74
2023/08/06 04:22:59;;;;;;;;;;;;;;;19.00;64.37;99242.69;4980487;28;6829;-73
2023/08/06 04:25:24;;;;;;;;;;;;;;;19.03;64.37;99240.97;4981216;28;6796;-74
2023/08/06 04:27:50;;;;;;;;;;;;;;;19.04;64.15;99246.13;4994563;28;6978;-74
2023/08/06 04:30:15;;;;;;;;;;;;;;;19.05;64.43;99250.44;4980219;28;7291;-74
2023/08/06 04:32:41;;;;;;;;;;;;;;;19.07;64.10;99247.84;4984532;28;7019;-74
2023/08/06 04:35:07;;;;;;;;;;;;;;;19.07;64.14;99245.25;4975347;28;7022;-74
2023/08/06 04:37:32;;;;;;;;;;;;;;;19.06;64.54;99251.31;4964557;28;7052;-74
2023/08/06 04:39:58;;;;;;;;;;;;;;;19.04;64.54;99250.47;4976400;28;6795;-74
2023/08/06 04:42:23;;;;;;;;;;;;;;;19.01;64.00;99249.59;4996883;28;6780;-74
2023/08/06 04:44:49;;;;;;;;;;;;;;;18.99;64.54;99250.47;4991132;28;6962;-74
2023/08/06 04:47:14;;;;;;;;;;;;;;;18.97;64.44;99252.19;4979808;28;7193;-74
2023/08/06 04:49:39;;;;;;;;;;;;;;;18.94;64.77;99255.69;4989017;28;6870;-74
2023/08/06 04:52:05;;;;;;;;;;;;;;;18.91;64.64;99255.66;4971241;28;6856;-74
2023/08/06 04:54:31;;;;;;;;;;;;;;;18.88;65.18;99255.69;4990911;28;8863;-74
2023/08/06 04:56:56;;;;;;;;;;;;;;;18.88;65.38;99255.69;4966471;28;6958;-74
2023/08/06 04:59:22;;;;;;;;;;;;;;;18.87;64.63;99252.22;4983094;28;6784;-74
2023/08/06 05:01:47;;;;;;;;;;;;;;;18.88;64.93;99258.28;4977999;28;6968;-73
2023/08/06 05:04:13;;;;;;;;;;;;;;;18.86;64.79;99260.03;4989206;28;7468;-73
2023/08/06 05:06:38;;;;;;;;;;;;;;;18.85;64.88;99255.72;4996232;28;6807;-73
2023/08/06 05:09:05;;;;;;;;;;;;;;;18.85;65.71;99259.16;4996907;28;6839;-74
2023/08/06 05:11:30;;;;;;;;;;;;;;;18.86;65.09;99260.03;4983472;28;6955;-73
2023/08/06 05:13:55;;;;;;;;;;;;;;;18.89;64.71;99260.00;4978296;28;8496;-73
2023/08/06 05:16:21;;;;;;;;;;;;;;;18.90;64.83;99266.94;4980021;28;6855;-73
2023/08/06 05:18:46;;;;;;;;;;;;;;;18.92;65.15;99264.34;4996911;28;6852;-73
2023/08/06 05:21:12;;;;;;;;;;;;;;;18.92;64.66;99267.78;4996007;28;7102;-73
2023/08/06 05:23:37;;;;;;;;;;;;;;;18.91;65.52;99265.22;4977734;28;6799;-73
2023/08/06 05:26:03;;;;;;;;;;;;;;;18.87;64.60;99278.19;4979083;28;7626;-73
2023/08/06 05:28:28;;;;;;;;;;;;;;;18.83;65.57;99273.88;4972282;28;7363;-73
2023/08/06 05:30:54;;;;;;;;;;;;;;;18.82;65.65;99276.47;4986852;28;6788;-73
2023/08/06 05:33:19;;;;;;;;;;;;;;;18.77;65.01;99280.84;4972890;28;6899;-73
2023/08/06 05:35:45;;;;;;;;;;;;;;;18.72;65.87;99281.69;4971820;28;6876;-73
2023/08/06 05:38:10;;;;;;;;;;;;;;;18.71;65.43;99285.16;4974926;28;6800;-73
2023/08/06 05:40:36;;;;;;;;;;;;;;;18.70;66.02;99286.03;4978397;28;6863;-73
2023/08/06 05:43:01;;;;;;;;;;;;;;;18.70;65.58;99286.03;4972214;28;6984;-73
2023/08/06 05:45:27;;;;;;;;;;;;;;;18.70;65.89;99293.81;4962601;28;7894;-73
2023/08/06 05:47:54;;;;;;;;;;;;;;;18.71;66.12;99298.13;4978386;28;6847;-73
2023/08/06 05:50:19;;;;;;;;;;;;;;;18.72;65.65;99299.03;4972538;28;8652;-73
2023/08/06 05:52:45;;;;;;;;;;;;;;;18.73;65.81;99299.03;4974409;28;8795;-73
2023/08/06 05:55:10;;;;;;;;;;;;;;;18.75;66.24;99306.78;4973237;28;6800;-73
2023/08/06 05:57:36;;;;;;;;;;;;;;;18.77;65.94;99301.59;4975797;28;6888;-73
2023/08/06 06:00:02;;;;;;;;;;;;;;;18.76;66.15;99305.91;4955757;28;6952;-73
2023/08/06 06:02:28;;;;;;;;;;;;;;;18.78;66.57;99309.34;4976902;28;7062;-73
2023/08/06 06:04:53;;;;;;;;;;;;;;;18.79;66.30;99307.66;4983101;28;7155;-73
2023/08/06 06:07:19;;;;;;;;;;;;;;;18.81;66.58;99314.56;4981212;28;7005;-73
2023/08/06 06:09:44;;;;;;;;;;;;;;;18.84;66.61;99314.53;4979372;28;6792;-74
2023/08/06 06:12:10;;;;;;;;;;;;;;;18.88;66.19;99320.59;4965307;28;7175;-73
2023/08/06 06:14:35;;;;;;;;;;;;;;;18.92;65.98;99319.69;4980563;28;7102;-73
2023/08/06 06:17:01;;;;;;;;;;;;;;;18.96;66.36;99320.56;4967782;28;6917;-73
2023/08/06 06:19:26;;;;;;;;;;;;;;;19.02;66.50;99320.56;4968783;28;6780;-74
2023/08/06 06:21:52;;;;;;;;;;;;;;;19.07;66.11;99325.75;4963309;28;6962;-74
2023/08/06 06:24:18;;;;;;;;;;;;;;;19.10;66.14;99329.19;4974357;28;7068;-74
2023/08/06 06:26:44;;;;;;;;;;;;;;;19.14;66.16;99332.66;4985207;28;6791;-73
2023/08/06 06:29:09;;;;;;;;;;;;;;;19.17;66.38;99334.34;4961872;28;7093;-73
2023/08/06 06:31:35;;;;;;;;;;;;;;;19.19;66.14;99349.06;4977549;28;7229;-74
2023/08/06 06:34:00;;;;;;;;;;;;;;;19.20;66.29;99353.38;4996536;28;6878;-74
2023/08/06 06:36:26;;;;;;;;;;;;;;;19.21;65.88;99354.25;4990984;28;7322;-74
2023/08/06 06:38:51;;;;;;;;;;;;;;;19.20;65.98;99358.59;4988190;28;7128;-74
2023/08/06 06:41:17;;;;;;;;;;;;;;;19.16;66.17;99356.88;4995368;28;6792;-74
2023/08/06 06:43:42;;;;;;;;;;;;;;;19.18;66.08;99364.69;4973432;28;7127;-74
2023/08/06 06:46:08;;;;;;;;;;;;;;;19.20;66.54;99363.78;4991566;28;6779;-74
2023/08/06 06:48:33;;;;;;;;;;;;;;;19.24;66.89;99359.44;4989538;28;7305;-74
2023/08/06 06:50:59;;;;;;;;;;;;;;;19.27;66.23;99360.28;4989363;28;6812;-74
2023/08/06 06:53:27;;;;;;;;;;;;;;;19.29;66.21;99368.09;4986330;28;6958;-74
2023/08/06 06:56:10;;;;;;;;;;;;;;;19.30;66.66;99364.63;4989164;28;7133;-74
2023/08/06 06:58:38;;;;;;;;;;;;;;;19.31;66.63;99370.66;4974564;28;6999;-74
2023/08/06 07:01:04;;;;;;;;;;;;;;;19.35;66.27;99372.38;4994763;28;6886;-73
2023/08/06 07:03:29;;;;;;;;;;;;;;;19.37;66.90;99373.25;4996094;28;7115;-74
2023/08/06 07:05:59;;;;;;;;;;;;;;;19.40;66.60;99370.63;4996100;28;6822;-74
2023/08/06 07:08:24;;;;;;;;;;;;;;;19.42;66.34;99376.69;4993746;28;7015;-73
2023/08/06 07:10:50;;;;;;;;;;;;;;;19.41;66.39;99377.53;4985885;28;6975;-74
2023/08/06 07:13:16;;;;;;;;;;;;;;;19.41;66.23;99382.72;4990136;28;7129;-73
2023/08/06 07:15:42;;;;;;;;;;;;;;;19.41;66.08;99374.94;5002288;28;6979;-74
2023/08/06 07:18:07;;;;;;;;;;;;;;;19.43;66.61;99383.63;5002672;28;8346;-73
2023/08/06 07:20:34;;;;;;;;;;;;;;;19.42;66.33;99385.34;4992839;28;7216;-73
2023/08/06 07:23:00;;;;;;;;;;;;;;;19.40;66.44;99387.09;4996316;28;7107;-73
2023/08/06 07:25:26;;;;;;;;;;;;;;;19.38;66.39;99393.16;4989209;28;6803;-73
2023/08/06 07:27:52;;;;;;;;;;;;;;;19.35;66.33;99399.22;4987202;28;7107;-73
2023/08/06 07:30:18;;;;;;;;;;;;;;;19.32;65.93;99408.78;4975316;28;8100;-73
2023/08/06 07:32:43;;;;;;;;;;;;;;;19.27;66.15;99414.84;4975001;28;10428;-73
2023/08/06 07:35:12;;;;;;;;;;;;;;;19.23;66.32;99407.06;4972375;28;7486;-73
2023/08/06 07:37:38;;;;;;;;;;;;;;;19.18;66.11;99417.47;4995048;28;6820;-73
2023/08/06 07:40:05;;;;;;;;;;;;;;;19.15;66.19;99420.09;5009732;28;7077;-73
2023/08/06 07:42:30;;;;;;;;;;;;;;;19.10;66.43;99417.50;4990895;28;6804;-73
2023/08/06 07:44:58;;;;;;;;;;;;;;;19.07;66.73;99420.06;5005669;28;10054;-73
2023/08/06 07:47:23;;;;;;;;;;;;;;;19.05;66.48;99420.97;4988822;28;7209;-73
2023/08/06 07:49:49;;;;;;;;;;;;;;;19.02;66.25;99427.03;4990858;28;6804;-73
2023/08/06 07:52:14;;;;;;;;;;;;;;;18.97;66.18;99427.00;4976358;28;7078;-73
2023/08/06 07:54:40;;;;;;;;;;;;;;;18.94;66.75;99424.44;4979488;28;7391;-73
2023/08/06 07:57:06;;;;;;;;;;;;;;;18.94;66.77;99429.63;4991612;28;6998;-74
2023/08/06 07:59:31;;;;;;;;;;;;;;;18.94;66.51;99434.81;4995035;28;6807;-73
2023/08/06 08:01:57;;;;;;;;;;;;;;;18.92;66.50;99431.34;4993989;28;6787;-73
2023/08/06 08:04:23;;;;;;;;;;;;;;;18.91;66.84;99426.16;4982161;28;6982;-73
2023/08/06 08:06:49;;;;;;;;;;;;;;;18.87;66.64;99446.06;5008205;28;6859;-73
2023/08/06 08:09:14;;;;;;;;;;;;;;;18.79;66.35;99446.09;5007981;28;6950;-73
2023/08/06 08:11:40;;;;;;;;;;;;;;;18.73;66.41;99465.13;5009471;28;7028;-73
2023/08/06 08:14:06;;;;;;;;;;;;;;;18.67;65.74;99465.13;5012231;28;6974;-73
2023/08/06 08:16:32;;;;;;;;;;;;;;;18.62;66.23;99473.78;4995497;28;6807;-73
2023/08/06 08:18:57;;;;;;;;;;;;;;;18.57;66.85;99484.16;4973335;28;7057;-73
2023/08/06 08:21:24;;;;;;;;;;;;;;;18.54;66.38;99492.78;4991001;28;6791;-74
2023/08/06 08:23:51;;;;;;;;;;;;;;;18.51;66.99;99507.47;4996749;28;6858;-73
2023/08/06 08:26:16;;;;;;;;;;;;;;;18.46;66.12;99502.28;4980505;28;6942;-73
2023/08/06 08:28:42;;;;;;;;;;;;;;;18.40;65.87;99507.50;5006732;28;6792;-73
2023/08/06 08:31:11;;;;;;;;;;;;;;;18.29;65.62;99523.03;4971586;28;6958;-72
2023/08/06 08:33:37;;;;;;;;;;;;;;;18.21;65.96;99523.00;4991312;28;7285;-73
2023/08/06 08:36:03;;;;;;;;;;;;;;;18.12;66.33;99530.75;4991120;28;7241;-73
2023/08/06 08:38:29;;;;;;;;;;;;;;;18.04;66.41;99528.13;4992415;28;7178;-73
2023/08/06 08:40:55;;;;;;;;;;;;;;;18.00;66.06;99541.91;4998860;28;6983;-74
2023/08/06 08:43:24;;;;;;;;;;;;;;;17.97;66.49;99539.31;5005413;28;7262;-73
2023/08/06 08:45:51;;;;;;;;;;;;;;;17.94;66.41;99542.75;4993392;28;6800;-74
2023/08/06 08:48:17;;;;;;;;;;;;;;;17.92;66.21;99552.25;4991469;28;6891;-74
2023/08/06 08:50:49;;;;;;;;;;;;;;;17.90;66.69;99559.16;4987954;28;7028;-73
2023/08/06 08:53:15;;;;;;;;;;;;;;;17.86;66.89;99555.66;5005081;28;7712;-74
2023/08/06 08:55:43;;;;;;;;;;;;;;;17.82;66.27;99556.53;4984390;28;6959;-73
2023/08/06 08:58:08;;;;;;;;;;;;;;;17.80;66.19;99558.25;4978166;28;6959;-72
2023/08/06 09:00:34;;;;;;;;;;;;;;;17.77;66.78;99566.88;4997716;28;7103;-73
2023/08/06 09:03:00;;;;;;;;;;;;;;;17.75;66.52;99562.53;4975917;28;8033;-73
2023/08/06 09:05:28;;;;;;;;;;;;;;;17.73;66.66;99575.50;4977749;28;6993;-72
2023/08/06 09:07:55;;;;;;;;;;;;;;;17.73;66.83;99578.09;4992446;28;7100;-73
2023/08/06 09:10:23;;;;;;;;;;;;;;;17.74;66.66;99597.09;4987597;28;7106;-73
2023/08/06 09:12:51;;;;;;;;;;;;;;;17.74;66.65;99587.59;5003296;28;6811;-73
2023/08/06 09:15:16;;;;;;;;;;;;;;;17.74;66.92;99597.97;4975258;28;7284;-73
2023/08/06 09:17:42;;;;;;;;;;;;;;;17.72;67.03;99606.56;5003822;28;7021;-73
2023/08/06 09:20:14;;;;;;;;;;;;;;;17.68;66.67;99603.09;4992396;28;6870;-74
2023/08/06 09:22:39;;;;;;;;;;;;;;;17.66;66.65;99603.94;4979525;28;7073;-74
2023/08/06 09:25:09;;;;;;;;;;;;;;;17.63;66.94;99616.03;4977494;28;7154;-73
2023/08/06 09:27:36;;;;;;;;;;;;;;;17.62;66.73;99619.47;4990521;28;6819;-74
2023/08/06 09:30:03;;;;;;;;;;;;;;;17.61;67.17;99620.34;4993315;28;7008;-73
2023/08/06 09:32:47;;;;;;;;;;;;;;;17.61;66.79;99622.03;5006529;28;7710;-74
2023/08/06 09:35:17;;;;;;;;;;;;;;;17.61;66.84;99632.41;5003113;28;7086;-73
2023/08/06 09:37:43;;;;;;;;;;;;;;;17.62;67.18;99627.25;4988764;28;7146;-73
2023/08/06 09:40:30;;;;;;;;;;;;;;;17.64;66.94;99635.03;4994876;28;7459;-73
2023/08/06 09:42:57;;;;;;;;;;;;;;;17.65;67.12;99641.06;4973259;28;7593;-74
2023/08/06 09:45:23;;;;;;;;;;;;;;;17.65;66.56;99654.03;4992179;28;6837;-73
2023/08/06 09:47:56;;;;;;;;;;;;;;;17.65;67.24;99649.72;5001171;28;7014;-73
2023/08/06 09:50:21;;;;;;;;;;;;;;;17.66;67.13;99651.47;4993423;28;6877;-73
2023/08/06 09:52:48;;;;;;;;;;;;;;;17.69;66.74;99658.41;4981626;28;7035;-73
2023/08/06 09:55:15;;;;;;;;;;;;;;;17.73;67.51;99662.72;4996724;28;7257;-74
2023/08/06 09:57:41;;;;;;;;;;;;;;;17.77;67.64;99665.34;4992559;28;6987;-73
2023/08/06 10:00:11;;;;;;;;;;;;;;;17.86;67.52;99677.50;4980292;28;7035;-74
2023/08/06 10:02:41;;;;;;;;;;;;;;;17.95;67.57;99681.88;4996994;28;13450;-74
2023/08/06 10:05:07;;;;;;;;;;;;;;;18.04;67.78;99684.56;4972352;28;7019;-74
2023/08/06 10:07:34;;;;;;;;;;;;;;;18.14;67.58;99682.03;4988125;28;6792;-73
2023/08/06 10:10:00;;;;;;;;;;;;;;;18.25;67.29;99693.31;4990397;28;6871;-73
2023/08/06 10:12:29;;;;;;;;;;;;;;;18.38;67.69;99683.88;4973260;28;7063;-74
2023/08/06 10:14:57;;;;;;;;;;;;;;;18.50;67.68;99685.66;4989406;28;7011;-73
2023/08/06 10:17:23;;;;;;;;;;;;;;;18.66;67.63;99699.56;4979933;28;7274;-74
2023/08/06 10:19:51;;;;;;;;;;;;;;;18.81;67.39;99690.06;4991932;28;6811;-73
2023/08/06 10:22:18;;;;;;;;;;;;;;;18.94;67.17;99699.63;4996108;28;6863;-73
2023/08/06 10:24:51;;;;;;;;;;;;;;;19.08;66.53;99702.31;4991743;28;8941;-74
2023/08/06 10:27:21;;;;;;;;;;;;;;;19.19;66.14;99694.50;4995306;28;6871;-74
2023/08/06 10:29:47;;;;;;;;;;;;;;;19.25;65.97;99689.31;4974712;28;7299;-74
2023/08/06 10:32:12;;;;;;;;;;;;;;;19.30;66.16;99704.91;5007005;28;7040;-74
2023/08/06 10:34:57;;;;;;;;;;;;;;;19.28;65.30;99702.31;4987602;28;6791;-74
2023/08/06 10:37:23;;;;;;;;;;;;;;;19.24;65.51;99698.00;4996907;28;6819;-73
2023/08/06 10:39:50;;;;;;;;;;;;;;;19.22;66.11;99699.72;4997935;28;6978;-74
2023/08/06 10:42:20;;;;;;;;;;;;;;;19.21;65.72;99695.38;5009831;28;6807;-73
2023/08/06 10:45:11;;;;;;;;;;;;;;;19.23;65.86;99701.44;4982175;28;7258;-74
2023/08/06 10:47:40;;;;;;;;;;;;;;;19.25;65.95;99704.91;5012145;28;7088;-74
2023/08/06 10:50:08;;;;;;;;;;;;;;;19.27;66.07;99705.78;4997338;28;6808;-74
2023/08/06 10:52:34;;;;;;;;;;;;;;;19.29;66.04;99717.03;4982246;28;7010;-74
2023/08/06 10:54:59;;;;;;;;;;;;;;;19.31;65.75;99714.44;4998094;28;6985;-74
2023/08/06 10:57:25;;;;;;;;;;;;;;;19.36;65.88;99711.84;5012891;28;7281;-74
2023/08/06 10:59:51;;;;;;;;;;;;;;;19.38;65.76;99707.50;4995569;28;6792;-74
2023/08/06 11:02:16;;;;;;;;;;;;;;;19.38;65.27;99710.13;4991917;28;6791;-74
2023/08/06 11:04:42;;;;;;;;;;;;;;;19.40;66.09;99718.78;4981779;28;7007;-74
2023/08/06 11:07:07;;;;;;;;;;;;;;;19.48;65.45;99716.19;4991286;28;7343;-74
2023/08/06 11:09:33;;;;;;;;;;;;;;;19.59;65.54;99718.78;4987916;28;7509;-74
2023/08/06 11:11:58;;;;;;;;;;;;;;;19.67;66.00;99725.72;4974259;28;8014;-74
2023/08/06 11:14:24;;;;;;;;;;;;;;;19.74;65.77;99726.59;4986302;28;7676;-74
2023/08/06 11:16:50;;;;;;;;;;;;;;;19.82;65.75;99711.84;4991444;28;8047;-74
2023/08/06 11:19:16;;;;;;;;;;;;;;;19.90;65.27;99716.19;4992756;28;6792;-74
2023/08/06 11:21:43;;;;;;;;;;;;;;;19.97;65.96;99718.78;4989434;28;6853;-74
2023/08/06 11:24:12;;;;;;;;;;;;;;;20.09;65.42;99720.50;4984111;28;7045;-74
2023/08/06 11:26:40;;;;;;;;;;;;;;;20.23;65.53;99727.41;4993927;28;6800;-74
2023/08/06 11:29:05;;;;;;;;;;;;;;;20.32;65.07;99724.78;4994494;28;6800;-74
2023/08/06 11:31:31;;;;;;;;;;;;;;;20.40;65.09;99723.03;4988953;28;7362;-74
2023/08/06 11:33:56;;;;;;;;;;;;;;;20.49;65.40;99724.72;4996475;28;6780;-74
2023/08/06 11:36:32;;;;;;;;;;;;;;;20.59;65.05;99724.69;5008688;28;6772;-74
2023/08/06 11:39:05;;;;;;;;;;;;;;;20.64;65.31;99722.94;4975607;28;7130;-74
2023/08/06 11:41:31;;;;;;;;;;;;;;;20.72;64.61;99731.59;4987512;28;6816;-74
2023/08/06 11:43:57;;;;;;;;;;;;;;;20.78;64.80;99730.69;4989702;28;7003;-74
2023/08/06 11:46:23;;;;;;;;;;;;;;;20.84;64.41;99735.03;4995412;28;6788;-74
2023/08/06 11:48:54;;;;;;;;;;;;;;;20.86;64.04;99735.88;4992457;28;6795;-74
2023/08/06 11:51:26;;;;;;;;;;;;;;;20.84;63.82;99735.03;4994805;28;6807;-73
2023/08/06 11:53:55;;;;;;;;;;;;;;;20.83;64.03;99736.75;4991046;28;8107;-74
2023/08/06 11:56:21;;;;;;;;;;;;;;;20.80;63.32;99739.34;4991570;28;6816;-74
2023/08/06 11:58:47;;;;;;;;;;;;;;;20.76;63.39;99742.81;4993453;28;7046;-74
2023/08/06 12:01:13;;;;;;;;;;;;;;;20.71;63.61;99748.06;4991828;28;6799;-73
2023/08/06 12:03:39;;;;;;;;;;;;;;;20.66;63.39;99745.47;4993485;28;6836;-74
2023/08/06 12:06:05;;;;;;;;;;;;;;;20.64;63.33;99749.81;4994269;28;6792;-74
2023/08/06 12:08:30;;;;;;;;;;;;;;;20.60;63.27;99758.53;4994062;28;7123;-74
2023/08/06 12:10:56;;;;;;;;;;;;;;;20.57;63.51;99755.94;4991537;28;6796;-74
2023/08/06 12:13:21;;;;;;;;;;;;;;;20.57;63.80;99748.13;4993644;28;6792;-73
2023/08/06 12:15:47;;;;;;;;;;;;;;;20.60;63.68;99755.03;4994497;28;7222;-75
2023/08/06 12:18:12;;;;;;;;;;;;;;;20.62;63.74;99761.13;4978839;28;6938;-73
2023/08/06 12:20:38;;;;;;;;;;;;;;;20.61;63.45;99761.97;4996959;28;7276;-74
2023/08/06 12:23:04;;;;;;;;;;;;;;;20.56;63.52;99764.59;4991341;28;6913;-74
2023/08/06 12:25:29;;;;;;;;;;;;;;;20.58;63.71;99765.50;4993601;28;7151;-74
2023/08/06 12:27:55;;;;;;;;;;;;;;;20.63;64.28;99771.53;4993449;28;6783;-74
2023/08/06 12:30:20;;;;;;;;;;;;;;;20.72;63.98;99764.56;4992674;28;6787;-74
2023/08/06 12:32:46;;;;;;;;;;;;;;;20.75;63.58;99769.75;4975480;28;6999;-74
2023/08/06 12:35:11;;;;;;;;;;;;;;;20.78;63.60;99765.38;4992194;28;7354;-74
2023/08/06 12:37:38;;;;;;;;;;;;;;;20.80;63.61;99779.25;5000878;28;7130;-74
2023/08/06 12:40:04;;;;;;;;;;;;;;;20.80;63.11;99770.59;4994378;28;6820;-74
2023/08/06 12:42:30;;;;;;;;;;;;;;;20.77;63.15;99768.03;4986159;28;7181;-74
2023/08/06 12:44:55;;;;;;;;;;;;;;;20.76;63.02;99779.28;4988232;28;6966;-74
2023/08/06 12:47:21;;;;;;;;;;;;;;;20.79;63.67;99776.69;4995126;28;7235;-74
2023/08/06 12:49:46;;;;;;;;;;;;;;;20.86;63.57;99781.03;4990458;28;6788;-74
2023/08/06 12:52:14;;;;;;;;;;;;;;;20.93;63.38;99790.53;4970050;28;7268;-74
2023/08/06 12:54:40;;;;;;;;;;;;;;;20.99;63.01;99773.16;4996510;28;7259;-74